createdAt,value
2022-09-25T00:01:16.289Z,99759.81
2022-09-25T00:03:44.121Z,99759.94
2022-09-25T00:06:23.334Z,99763.56
2022-09-25T00:08:51.337Z,99759.09
2022-09-25T00:11:26.309Z,99758.59
2022-09-25T00:13:55.467Z,99762.22
2022-09-25T00:16:26.246Z,99749.50
2022-09-25T00:19:12.592Z,99757.22
2022-09-25T00:21:40.286Z,99748.13
2022-09-25T00:24:09.821Z,99748.63
2022-09-25T00:26:39.915Z,99745.75
2022-09-25T00:29:09.033Z,99748.09
2022-09-25T00:31:36.587Z,99748.38
2022-09-25T00:34:05.435Z,99746.03
2022-09-25T00:36:33.504Z,99741.28
2022-09-25T00:39:01.345Z,99739.28
2022-09-25T00:41:32.102Z,99741.28
2022-09-25T00:44:02.713Z,99737.41
2022-09-25T00:46:43.995Z,99737.19
2022-09-25T00:49:18.086Z,99732.28
2022-09-25T00:52:00.055Z,99732.16
2022-09-25T00:54:40.764Z,99734.50
2022-09-25T00:57:11.318Z,99741.16
2022-09-25T00:59:43.025Z,99730.12
2022-09-25T01:02:14.643Z,99727.16
2022-09-25T01:04:46.179Z,99732.47
2022-09-25T01:07:14.932Z,99742.94
2022-09-25T01:09:43.888Z,99743.16
2022-09-25T01:12:11.260Z,99737.03
2022-09-25T01:14:39.611Z,99727.03
2022-09-25T01:17:12.445Z,99717.28
2022-09-25T01:19:55.919Z,99725.19
2022-09-25T01:22:35.623Z,99726.25
2022-09-25T01:25:05.977Z,99726.28
2022-09-25T01:28:13.653Z,99724.72
2022-09-25T01:30:45.040Z,99731.69
2022-09-25T01:33:21.766Z,99728.97
2022-09-25T01:35:53.217Z,99726.50
2022-09-25T01:38:34.803Z,99733.53
2022-09-25T01:41:02.198Z,99728.25
2022-09-25T01:43:39.879Z,99729.72
2022-09-25T01:46:14.104Z,99731.16
2022-09-25T01:48:43.253Z,99730.97
2022-09-25T01:51:32.402Z,99735.09
2022-09-25T01:54:05.541Z,99735.34
2022-09-25T01:57:02.307Z,99720.69
2022-09-25T01:59:51.634Z,99719.97
2022-09-25T02:02:22.947Z,99711.25
2022-09-25T02:04:57.897Z,99718.66
2022-09-25T02:07:30.839Z,99708.06
2022-09-25T02:10:04.985Z,99715.06
2022-09-25T02:12:37.406Z,99715.19
2022-09-25T02:15:09.745Z,99707.88
2022-09-25T02:18:11.973Z,99717.84
2022-09-25T02:20:42.293Z,99718.09
2022-09-25T02:23:38.915Z,99716.81
2022-09-25T02:26:09.170Z,99717.31
2022-09-25T02:28:36.676Z,99725.75
2022-09-25T02:31:07.171Z,99727.19
2022-09-25T02:33:35.332Z,99719.28
2022-09-25T02:36:04.655Z,99719.91
2022-09-25T02:38:33.733Z,99726.34
2022-09-25T02:41:11.111Z,99720.09
2022-09-25T02:44:04.653Z,99720.19
2022-09-25T02:46:41.631Z,99719.63
2022-09-25T02:49:33.428Z,99720.41
2022-09-25T02:52:01.255Z,99714.97
2022-09-25T02:54:32.825Z,99721.81
2022-09-25T02:57:06.464Z,99711.69
2022-09-25T02:59:41.997Z,99707.44
2022-09-25T03:02:11.840Z,99706.59
2022-09-25T03:04:40.344Z,99701.00
2022-09-25T03:07:08.067Z,99707.19
2022-09-25T03:09:38.738Z,99714.38
2022-09-25T03:12:06.765Z,99708.06
2022-09-25T03:14:34.269Z,99702.03
2022-09-25T03:17:04.737Z,99695.72
2022-09-25T03:19:34.863Z,99702.19
2022-09-25T03:22:02.982Z,99698.81
2022-09-25T03:24:31.415Z,99698.97
2022-09-25T03:26:59.493Z,99700.44
2022-09-25T03:29:26.988Z,99693.16
2022-09-25T03:31:54.400Z,99701.94
2022-09-25T03:34:22.831Z,99693.25
2022-09-25T03:36:50.286Z,99692.34
2022-09-25T03:39:20.823Z,99686.47
2022-09-25T03:41:48.443Z,99697.03
2022-09-25T03:44:15.853Z,99696.59
2022-09-25T03:46:43.318Z,99703.50
2022-09-25T03:49:11.231Z,99702.69
2022-09-25T03:51:39.056Z,99708.09
2022-09-25T03:54:06.637Z,99722.56
2022-09-25T03:56:34.549Z,99727.88
2022-09-25T03:59:01.919Z,99714.00
2022-09-25T04:01:29.672Z,99718.25
2022-09-25T04:03:57.835Z,99726.34
2022-09-25T04:06:26.415Z,99723.56
2022-09-25T04:08:54.387Z,99715.66
2022-09-25T04:11:24.115Z,99715.53
2022-09-25T04:13:52.770Z,99713.22
2022-09-25T04:16:21.205Z,99718.25
2022-09-25T04:18:51.294Z,99708.59
2022-09-25T04:21:18.897Z,99707.09
2022-09-25T04:24:04.768Z,99695.91
2022-09-25T04:26:32.567Z,99691.47
2022-09-25T04:29:01.693Z,99699.78
2022-09-25T04:31:30.081Z,99696.50
2022-09-25T04:33:58.104Z,99703.06
2022-09-25T04:36:25.635Z,99702.75
2022-09-25T04:38:52.977Z,99699.19
2022-09-25T04:41:20.699Z,99701.78
2022-09-25T04:43:48.378Z,99693.69
2022-09-25T04:46:21.518Z,99700.69
2022-09-25T04:48:50.318Z,99706.44
2022-09-25T04:51:17.992Z,99706.59
2022-09-25T04:53:46.107Z,99706.06
2022-09-25T04:56:15.792Z,99709.09
2022-09-25T04:58:46.228Z,99716.03
2022-09-25T05:01:14.078Z,99716.25
2022-09-25T05:03:41.605Z,99722.00
2022-09-25T05:06:09.255Z,99716.34
2022-09-25T05:08:36.897Z,99715.47
2022-09-25T05:11:04.263Z,99708.72
2022-09-25T05:13:31.623Z,99709.31
2022-09-25T05:15:59.353Z,99709.66
2022-09-25T05:18:26.889Z,99707.22
2022-09-25T05:20:54.479Z,99709.25
2022-09-25T05:23:23.408Z,99708.88
2022-09-25T05:25:55.431Z,99715.16
2022-09-25T05:28:23.657Z,99709.88
2022-09-25T05:30:51.580Z,99715.75
2022-09-25T05:33:19.272Z,99714.84
2022-09-25T05:35:48.490Z,99709.91
2022-09-25T05:38:15.945Z,99714.19
2022-09-25T05:40:43.438Z,99709.34
2022-09-25T05:43:12.559Z,99715.41
2022-09-25T05:45:39.950Z,99720.03
2022-09-25T05:48:08.358Z,99729.25
2022-09-25T05:50:36.491Z,99729.22
2022-09-25T05:53:05.175Z,99727.03
2022-09-25T05:55:32.722Z,99723.72
2022-09-25T05:58:02.734Z,99724.63
2022-09-25T06:00:33.006Z,99723.66
2022-09-25T06:03:01.967Z,99725.81
2022-09-25T06:05:30.267Z,99724.50
2022-09-25T06:07:57.666Z,99726.28
2022-09-25T06:10:28.421Z,99734.63
2022-09-25T06:13:00.142Z,99738.97
2022-09-25T06:15:29.037Z,99742.13
2022-09-25T06:17:56.597Z,99744.19
2022-09-25T06:20:25.018Z,99746.34
2022-09-25T06:22:54.341Z,99751.25
2022-09-25T06:25:23.915Z,99747.22
2022-09-25T06:28:00.391Z,99740.19
2022-09-25T06:30:36.640Z,99743.66
2022-09-25T06:33:10.896Z,99743.91
2022-09-25T06:35:47.225Z,99739.88
2022-09-25T06:38:15.607Z,99742.66
2022-09-25T06:40:43.788Z,99749.06
2022-09-25T06:43:12.977Z,99748.09
2022-09-25T06:45:40.560Z,99749.87
2022-09-25T06:48:16.358Z,99747.28
2022-09-25T06:50:49.070Z,99743.72
2022-09-25T06:53:18.298Z,99752.13
2022-09-25T06:55:45.975Z,99748.59
2022-09-25T06:58:19.588Z,99753.38
2022-09-25T07:00:48.393Z,99755.50
2022-09-25T07:03:34.648Z,99757.53
2022-09-25T07:06:03.843Z,99751.97
2022-09-25T07:08:31.454Z,99751.72
2022-09-25T07:10:59.391Z,99744.97
2022-09-25T07:13:29.999Z,99748.81
2022-09-25T07:16:07.315Z,99745.28
2022-09-25T07:18:34.998Z,99742.00
2022-09-25T07:21:07.847Z,99741.25
2022-09-25T07:23:36.247Z,99742.41
2022-09-25T07:26:09.122Z,99737.81
2022-09-25T07:28:37.789Z,99742.41
2022-09-25T07:31:15.530Z,99738.59
2022-09-25T07:33:43.309Z,99732.75
2022-09-25T07:36:12.045Z,99738.72
2022-09-25T07:38:40.055Z,99729.38
2022-09-25T07:41:11.220Z,99736.66
2022-09-25T07:43:38.829Z,99739.56
2022-09-25T07:46:06.975Z,99736.59
2022-09-25T07:48:35.016Z,99723.44
2022-09-25T07:51:07.693Z,99712.94
2022-09-25T07:53:35.323Z,99714.72
2022-09-25T07:56:06.600Z,99710.50
2022-09-25T07:58:35.721Z,99711.63
2022-09-25T08:01:05.865Z,99708.69
2022-09-25T08:03:34.150Z,99716.44
2022-09-25T08:06:11.783Z,99713.38
2022-09-25T08:08:40.789Z,99714.84
2022-09-25T08:11:14.041Z,99718.25
2022-09-25T08:13:41.933Z,99710.53
2022-09-25T08:16:13.596Z,99706.81
2022-09-25T08:18:42.615Z,99704.69
2022-09-25T08:21:14.308Z,99712.53
2022-09-25T08:23:47.740Z,99712.69
2022-09-25T08:26:16.679Z,99719.75
2022-09-25T08:28:44.503Z,99724.81
2022-09-25T08:31:14.646Z,99720.28
2022-09-25T08:33:46.883Z,99734.34
2022-09-25T08:36:14.593Z,99731.38
2022-09-25T08:38:42.371Z,99724.25
2022-09-25T08:41:18.888Z,99738.69
2022-09-25T08:44:09.505Z,99730.94
2022-09-25T08:46:58.630Z,99721.53
2022-09-25T08:49:29.898Z,99726.94
2022-09-25T08:52:02.585Z,99716.44
2022-09-25T08:54:32.098Z,99720.41
2022-09-25T08:57:06.992Z,99722.94
2022-09-25T08:59:35.812Z,99725.16
2022-09-25T09:02:11.651Z,99726.50
2022-09-25T09:04:47.111Z,99720.78
2022-09-25T09:07:34.554Z,99729.59
2022-09-25T09:10:34.580Z,99729.94
2022-09-25T09:13:11.350Z,99738.66
2022-09-25T09:16:00.933Z,99730.62
2022-09-25T09:18:30.507Z,99731.94
2022-09-25T09:21:22.647Z,99737.00
2022-09-25T09:24:06.287Z,99729.72
2022-09-25T09:26:52.172Z,99733.44
2022-09-25T09:29:28.285Z,99737.13
2022-09-25T09:32:11.267Z,99729.06
2022-09-25T09:35:07.301Z,99728.97
2022-09-25T09:37:46.396Z,99736.47
2022-09-25T09:40:43.307Z,99736.03
2022-09-25T09:43:44.398Z,99736.81
2022-09-25T09:46:22.684Z,99727.16
2022-09-25T09:49:11.018Z,99731.97
2022-09-25T09:51:38.486Z,99728.03
2022-09-25T09:54:16.340Z,99730.78
2022-09-25T09:56:46.426Z,99728.97
2022-09-25T09:59:22.648Z,99726.22
2022-09-25T10:02:00.334Z,99717.16
2022-09-25T10:04:34.113Z,99718.63
2022-09-25T10:07:05.411Z,99731.12
2022-09-25T10:09:33.250Z,99721.69
2022-09-25T10:12:08.296Z,99722.47
2022-09-25T10:14:42.520Z,99731.75
2022-09-25T10:17:13.562Z,99725.81
2022-09-25T10:20:02.127Z,99729.34
2022-09-25T10:22:36.901Z,99724.44
2022-09-25T10:25:06.744Z,99729.28
2022-09-25T10:27:36.900Z,99731.53
2022-09-25T10:30:22.892Z,99731.06
2022-09-25T10:33:14.399Z,99737.13
2022-09-25T10:35:45.981Z,99731.88
2022-09-25T10:38:48.430Z,99725.97
2022-09-25T10:41:22.472Z,99724.94
2022-09-25T10:43:52.911Z,99715.38
2022-09-25T10:46:48.508Z,99715.16
2022-09-25T10:49:45.462Z,99715.47
2022-09-25T10:52:15.391Z,99718.19
2022-09-25T10:54:45.678Z,99711.25
2022-09-25T10:57:34.240Z,99705.94
2022-09-25T11:00:19.459Z,99708.66
2022-09-25T11:02:48.438Z,99704.75
2022-09-25T11:05:21.352Z,99703.59
2022-09-25T11:07:58.950Z,99696.97
2022-09-25T11:10:42.754Z,99686.78
2022-09-25T11:13:21.184Z,99695.41
2022-09-25T11:15:53.952Z,99696.69
2022-09-25T11:18:38.717Z,99702.84
2022-09-25T11:21:26.095Z,99693.16
2022-09-25T11:24:04.725Z,99698.63
2022-09-25T11:26:42.489Z,99696.50
2022-09-25T11:29:39.379Z,99696.50
2022-09-25T11:32:32.654Z,99691.56
2022-09-25T11:35:30.079Z,99697.53
2022-09-25T11:38:09.730Z,99697.34
2022-09-25T11:41:14.780Z,99694.28
2022-09-25T11:43:58.349Z,99699.84
2022-09-25T11:47:06.626Z,99697.63
2022-09-25T11:49:36.782Z,99700.66
2022-09-25T11:52:29.543Z,99691.88
2022-09-25T11:54:59.916Z,99695.19
2022-09-25T11:57:36.621Z,99687.72
2022-09-25T12:00:28.613Z,99689.50
2022-09-25T12:03:09.510Z,99676.00
2022-09-25T12:06:05.569Z,99686.56
2022-09-25T12:08:54.634Z,99678.50
2022-09-25T12:11:32.053Z,99676.03
2022-09-25T12:14:26.926Z,99672.97
2022-09-25T12:17:23.855Z,99673.47
2022-09-25T12:20:02.911Z,99673.63
2022-09-25T12:23:03.906Z,99679.59
2022-09-25T12:25:48.151Z,99683.59
2022-09-25T12:28:23.289Z,99688.09
2022-09-25T12:31:06.650Z,99684.16
2022-09-25T12:33:59.571Z,99684.78
2022-09-25T12:36:41.956Z,99680.75
2022-09-25T12:39:30.007Z,99678.59
2022-09-25T12:42:07.526Z,99669.97
2022-09-25T12:44:50.243Z,99671.84
2022-09-25T12:47:46.512Z,99669.75
2022-09-25T12:50:16.983Z,99668.28
2022-09-25T12:52:52.544Z,99666.19
2022-09-25T12:55:26.253Z,99663.44
2022-09-25T12:58:10.971Z,99664.00
2022-09-25T13:00:42.223Z,99658.97
2022-09-25T13:03:17.705Z,99666.53
2022-09-25T13:05:55.008Z,99658.97
2022-09-25T13:08:39.718Z,99661.69
2022-09-25T13:11:10.979Z,99650.97
2022-09-25T13:13:53.741Z,99656.25
2022-09-25T13:16:22.298Z,99647.81
2022-09-25T13:19:11.384Z,99655.31
2022-09-25T13:21:42.326Z,99659.28
2022-09-25T13:24:14.499Z,99658.91
2022-09-25T13:26:52.766Z,99657.81
2022-09-25T13:29:35.053Z,99658.84
2022-09-25T13:32:18.989Z,99657.75
2022-09-25T13:34:47.244Z,99654.19
2022-09-25T13:37:15.677Z,99655.91
2022-09-25T13:40:08.792Z,99655.56
2022-09-25T13:42:40.117Z,99650.44
2022-09-25T13:45:33.290Z,99648.91
2022-09-25T13:48:12.529Z,99650.84
2022-09-25T13:50:45.379Z,99653.38
2022-09-25T13:53:21.660Z,99650.94
2022-09-25T13:55:55.167Z,99648.56
2022-09-25T13:58:25.780Z,99649.91
2022-09-25T14:00:58.773Z,99640.53
2022-09-25T14:03:44.089Z,99640.28
2022-09-25T14:06:17.570Z,99647.12
2022-09-25T14:08:45.861Z,99639.94
2022-09-25T14:11:17.162Z,99643.97
2022-09-25T14:13:46.728Z,99647.22
2022-09-25T14:16:26.118Z,99645.59
2022-09-25T14:18:55.357Z,99638.13
2022-09-25T14:21:23.230Z,99638.34
2022-09-25T14:23:53.488Z,99640.88
2022-09-25T14:26:24.863Z,99634.13
2022-09-25T14:28:54.359Z,99625.09
2022-09-25T14:31:31.204Z,99633.13
2022-09-25T14:34:20.535Z,99621.22
2022-09-25T14:37:17.115Z,99633.00
2022-09-25T14:39:50.858Z,99627.59
2022-09-25T14:42:52.231Z,99626.66
2022-09-25T14:45:31.988Z,99627.69
2022-09-25T14:48:00.761Z,99620.87
2022-09-25T14:50:38.576Z,99618.47
2022-09-25T14:53:12.961Z,99621.56
2022-09-25T14:55:46.358Z,99620.31
2022-09-25T14:58:21.904Z,99625.41
2022-09-25T15:00:55.622Z,99624.47
2022-09-25T15:03:31.185Z,99622.16
2022-09-25T15:06:02.054Z,99618.72
2022-09-25T15:08:38.981Z,99608.19
2022-09-25T15:11:12.693Z,99602.13
2022-09-25T15:13:40.688Z,99616.19
2022-09-25T15:16:33.478Z,99623.84
2022-09-25T15:19:02.454Z,99624.25
2022-09-25T15:21:31.902Z,99617.91
2022-09-25T15:24:07.332Z,99610.47
2022-09-25T15:26:39.370Z,99610.28
2022-09-25T15:29:18.240Z,99605.13
2022-09-25T15:31:50.788Z,99604.94
2022-09-25T15:34:24.348Z,99598.06
2022-09-25T15:36:52.553Z,99592.78
2022-09-25T15:39:25.517Z,99589.00
2022-09-25T15:41:53.374Z,99596.00
2022-09-25T15:44:25.428Z,99599.25
2022-09-25T15:46:58.972Z,99599.09
2022-09-25T15:49:33.586Z,99596.41
2022-09-25T15:52:02.405Z,99593.09
2022-09-25T15:54:36.264Z,99588.78
2022-09-25T15:57:07.051Z,99586.81
2022-09-25T15:59:58.796Z,99578.75
2022-09-25T16:02:51.227Z,99576.50
2022-09-25T16:05:27.466Z,99579.03
2022-09-25T16:08:15.528Z,99574.59
2022-09-25T16:10:49.695Z,99582.03
2022-09-25T16:13:23.336Z,99577.47
2022-09-25T16:15:52.492Z,99573.81
2022-09-25T16:18:46.498Z,99573.41
2022-09-25T16:21:15.868Z,99571.69
2022-09-25T16:23:44.238Z,99568.81
2022-09-25T16:26:22.271Z,99562.16
2022-09-25T16:29:11.525Z,99567.19
2022-09-25T16:31:40.345Z,99558.37
2022-09-25T16:34:17.945Z,99562.41
2022-09-25T16:36:46.083Z,99565.28
2022-09-25T16:39:23.128Z,99562.62
2022-09-25T16:41:51.211Z,99561.88
2022-09-25T16:44:21.930Z,99559.19
2022-09-25T16:46:52.594Z,99561.44
2022-09-25T16:49:20.570Z,99550.47
2022-09-25T16:51:49.245Z,99544.06
2022-09-25T16:54:18.473Z,99546.25
2022-09-25T16:56:48.156Z,99544.81
2022-09-25T16:59:24.481Z,99537.72
2022-09-25T17:02:00.946Z,99525.34
2022-09-25T17:04:31.175Z,99520.37
2022-09-25T17:06:59.040Z,99525.44
2022-09-25T17:09:28.664Z,99527.41
2022-09-25T17:12:01.079Z,99530.84
2022-09-25T17:14:28.990Z,99527.25
2022-09-25T17:16:57.009Z,99516.66
2022-09-25T17:19:24.706Z,99516.44
2022-09-25T17:21:53.846Z,99516.50
2022-09-25T17:24:23.905Z,99517.47
2022-09-25T17:26:52.146Z,99516.25
2022-09-25T17:29:20.602Z,99510.41
2022-09-25T17:31:48.224Z,99505.13
2022-09-25T17:34:25.127Z,99502.47
2022-09-25T17:36:52.729Z,99507.59
2022-09-25T17:39:21.191Z,99504.00
2022-09-25T17:41:48.595Z,99504.03
2022-09-25T17:44:22.885Z,99502.91
2022-09-25T17:46:55.764Z,99497.37
2022-09-25T17:49:24.060Z,99499.06
2022-09-25T17:51:52.091Z,99502.56
2022-09-25T17:54:20.426Z,99498.87
2022-09-25T17:56:48.346Z,99492.72
2022-09-25T17:59:16.568Z,99496.47
2022-09-25T18:01:44.357Z,99488.72
2022-09-25T18:04:23.896Z,99490.34
2022-09-25T18:06:52.078Z,99492.97
2022-09-25T18:09:20.149Z,99495.47
2022-09-25T18:11:48.088Z,99492.59
2022-09-25T18:14:16.130Z,99503.47
2022-09-25T18:16:45.063Z,99497.34
2022-09-25T18:19:36.234Z,99492.78
2022-09-25T18:22:21.920Z,99495.44
2022-09-25T18:24:57.053Z,99497.47
2022-09-25T18:27:30.715Z,99489.87
2022-09-25T18:29:58.532Z,99496.22
2022-09-25T18:32:27.026Z,99493.56
2022-09-25T18:34:54.732Z,99503.88
2022-09-25T18:37:22.666Z,99494.84
2022-09-25T18:39:50.875Z,99493.28
2022-09-25T18:42:18.655Z,99491.69
2022-09-25T18:44:46.374Z,99493.47
2022-09-25T18:47:14.310Z,99492.53
2022-09-25T18:49:42.724Z,99499.63
2022-09-25T18:52:11.620Z,99496.28
2022-09-25T18:54:42.168Z,99500.34
2022-09-25T18:57:11.590Z,99499.59
2022-09-25T18:59:40.558Z,99505.37
2022-09-25T19:02:21.735Z,99494.44
2022-09-25T19:04:51.776Z,99490.34
2022-09-25T19:07:19.745Z,99491.94
2022-09-25T19:09:47.295Z,99493.56
2022-09-25T19:12:17.166Z,99492.16
2022-09-25T19:14:45.416Z,99486.78
2022-09-25T19:17:14.951Z,99486.59
2022-09-25T19:19:43.936Z,99486.94
2022-09-25T19:22:17.908Z,99484.22
2022-09-25T19:24:46.786Z,99480.00
2022-09-25T19:27:18.005Z,99481.31
2022-09-25T19:29:46.144Z,99486.72
2022-09-25T19:32:15.548Z,99468.28
2022-09-25T19:34:42.965Z,99464.56
2022-09-25T19:37:11.267Z,99471.91
2022-09-25T19:39:57.511Z,99466.25
2022-09-25T19:42:28.782Z,99462.25
2022-09-25T19:44:56.494Z,99471.97
2022-09-25T19:47:24.303Z,99482.37
2022-09-25T19:49:52.308Z,99476.69
2022-09-25T19:52:22.267Z,99476.91
2022-09-25T19:54:49.849Z,99477.88
2022-09-25T19:57:18.268Z,99483.31
2022-09-25T19:59:45.945Z,99473.03
2022-09-25T20:02:13.877Z,99469.28
2022-09-25T20:04:44.042Z,99465.56
2022-09-25T20:07:16.105Z,99460.25
2022-09-25T20:09:44.691Z,99459.41
2022-09-25T20:12:12.341Z,99462.94
2022-09-25T20:14:40.030Z,99468.34
2022-09-25T20:17:10.189Z,99465.84
2022-09-25T20:19:37.836Z,99468.44
2022-09-25T20:22:05.879Z,99473.03
2022-09-25T20:24:33.816Z,99480.81
2022-09-25T20:27:01.418Z,99476.00
2022-09-25T20:29:29.192Z,99466.81
2022-09-25T20:31:57.048Z,99469.88
2022-09-25T20:34:24.471Z,99470.19
2022-09-25T20:36:53.077Z,99472.88
2022-09-25T20:39:22.397Z,99462.25
2022-09-25T20:41:50.614Z,99471.94
2022-09-25T20:44:18.585Z,99471.59
2022-09-25T20:46:46.615Z,99466.91
2022-09-25T20:49:14.822Z,99454.84
2022-09-25T20:51:46.441Z,99452.34
2022-09-25T20:54:14.956Z,99451.97
2022-09-25T20:56:44.050Z,99452.66
2022-09-25T20:59:12.327Z,99447.97
2022-09-25T21:01:41.501Z,99449.50
2022-09-25T21:04:10.379Z,99453.44
2022-09-25T21:06:41.241Z,99458.41
2022-09-25T21:09:15.949Z,99461.91
2022-09-25T21:11:43.643Z,99449.25
2022-09-25T21:14:16.298Z,99451.47
2022-09-25T21:16:43.684Z,99444.09
2022-09-25T21:19:13.181Z,99448.88
2022-09-25T21:21:41.052Z,99441.03
2022-09-25T21:24:10.242Z,99428.06
2022-09-25T21:26:37.990Z,99420.94
2022-09-25T21:29:06.037Z,99420.44
2022-09-25T21:31:45.195Z,99419.38
2022-09-25T21:34:16.394Z,99417.72
2022-09-25T21:36:45.622Z,99421.09
2022-09-25T21:39:13.861Z,99412.09
2022-09-25T21:41:41.791Z,99405.41
2022-09-25T21:44:14.199Z,99397.28
2022-09-25T21:46:42.356Z,99392.09
2022-09-25T21:49:16.155Z,99396.59
2022-09-25T21:51:45.590Z,99394.78
2022-09-25T21:54:14.455Z,99405.19
2022-09-25T21:56:41.934Z,99403.72
2022-09-25T21:59:09.875Z,99401.00
2022-09-25T22:01:38.725Z,99398.97
2022-09-25T22:04:08.249Z,99395.69
2022-09-25T22:06:38.792Z,99393.03
2022-09-25T22:09:09.668Z,99393.47
2022-09-25T22:11:38.090Z,99390.00
2022-09-25T22:14:06.308Z,99393.84
2022-09-25T22:16:36.290Z,99383.75
2022-09-25T22:19:17.511Z,99380.06
2022-09-25T22:21:46.324Z,99376.59
2022-09-25T22:24:14.829Z,99367.47
2022-09-25T22:26:45.513Z,99381.50
2022-09-25T22:29:13.606Z,99381.66
2022-09-25T22:31:44.602Z,99377.66
2022-09-25T22:34:16.659Z,99373.78
2022-09-25T22:36:44.940Z,99365.56
2022-09-25T22:39:14.583Z,99372.03
2022-09-25T22:41:42.325Z,99362.94
2022-09-25T22:44:10.034Z,99361.63
2022-09-25T22:46:37.461Z,99373.41
2022-09-25T22:49:04.849Z,99370.88
2022-09-25T22:51:32.459Z,99368.81
2022-09-25T22:53:59.827Z,99365.78
2022-09-25T22:56:29.398Z,99362.50
2022-09-25T22:58:59.716Z,99352.75
2022-09-25T23:01:33.611Z,99353.28
2022-09-25T23:04:04.304Z,99342.31
2022-09-25T23:06:33.117Z,99344.91
2022-09-25T23:09:03.928Z,99348.03
2022-09-25T23:11:31.589Z,99341.12
2022-09-25T23:14:01.911Z,99338.25
2022-09-25T23:16:31.317Z,99328.41
2022-09-25T23:19:00.036Z,99320.56
2022-09-25T23:21:29.184Z,99310.84
2022-09-25T23:24:01.744Z,99314.47
2022-09-25T23:26:29.770Z,99309.88
2022-09-25T23:28:58.486Z,99311.69
2022-09-25T23:31:26.157Z,99307.25
2022-09-25T23:33:53.571Z,99316.53
2022-09-25T23:36:22.867Z,99315.34
2022-09-25T23:38:51.937Z,99301.84
2022-09-25T23:41:26.731Z,99304.66
2022-09-25T23:43:55.529Z,99299.66
2022-09-25T23:46:25.472Z,99303.25
2022-09-25T23:48:53.874Z,99294.50
2022-09-25T23:51:26.165Z,99298.97
2022-09-25T23:53:55.178Z,99302.13
2022-09-25T23:56:25.409Z,99293.75
2022-09-25T23:58:53.629Z,99292.50
